Time;durP1;ratioP1;P1;durP2;ratioP2;P2;SDS_P1;SDS_P2;PMS_P1;PMS_P2;Temp;Humidity;BMP_temperature;BMP_pressure;BME280_temperature;BME280_humidity;BME280_pressure;Samples;Min_cycle;Max_cycle;Signal;HPM_P1;HPM_P2
2022/09/01 00:01:38;;;;;;;9.77;4.93;;;;;;;;;;4967326;28;20054;-72
2022/09/01 00:04:04;;;;;;;5.53;3.50;;;;;;;;;;4986991;28;20072;-71
2022/09/01 00:06:32;;;;;;;9.27;3.83;;;;;;;;;;4987226;28;20062;-72
2022/09/01 00:09:00;;;;;;;6.78;3.80;;;;;;;;;;4968069;28;20510;-73
2022/09/01 00:11:28;;;;;;;10.38;4.05;;;;;;;;;;4986440;28;20054;-71
2022/09/01 00:13:55;;;;;;;8.88;3.47;;;;;;;;;;4986689;28;20997;-72
2022/09/01 00:16:21;;;;;;;9.75;4.30;;;;;;;;;;4970688;28;20401;-72
2022/09/01 00:18:49;;;;;;;10.10;3.72;;;;;;;;;;4988199;28;20030;-73
2022/09/01 00:21:21;;;;;;;6.53;4.28;;;;;;;;;;4986284;28;20484;-73
2022/09/01 00:23:47;;;;;;;9.80;4.55;;;;;;;;;;4983051;28;20499;-73
2022/09/01 00:26:13;;;;;;;9.45;3.95;;;;;;;;;;4984646;28;20511;-71
2022/09/01 00:28:39;;;;;;;8.68;4.35;;;;;;;;;;4983192;28;20406;-71
2022/09/01 00:31:07;;;;;;;11.65;5.15;;;;;;;;;;4987932;28;20039;-73
2022/09/01 00:33:34;;;;;;;9.57;4.57;;;;;;;;;;4986687;28;20141;-72
2022/09/01 00:36:00;;;;;;;9.95;4.68;;;;;;;;;;4986821;28;20026;-71
2022/09/01 00:38:26;;;;;;;7.70;4.68;;;;;;;;;;4989097;28;20045;-71
2022/09/01 00:40:52;;;;;;;5.90;4.50;;;;;;;;;;4985540;28;20503;-72
2022/09/01 00:43:24;;;;;;;8.38;4.28;;;;;;;;;;4987173;28;20026;-72
2022/09/01 00:45:51;;;;;;;12.13;5.03;;;;;;;;;;4986563;28;21740;-71
2022/09/01 00:48:19;;;;;;;9.98;4.72;;;;;;;;;;4969125;28;20122;-72
2022/09/01 00:50:45;;;;;;;8.50;4.70;;;;;;;;;;4986310;28;20505;-72
2022/09/01 00:53:12;;;;;;;9.93;4.95;;;;;;;;;;4985599;28;20101;-70
2022/09/01 00:55:38;;;;;;;10.02;4.22;;;;;;;;;;4987366;28;20114;-71
2022/09/01 00:58:06;;;;;;;8.60;4.50;;;;;;;;;;4988191;28;20037;-71
2022/09/01 01:00:39;;;;;;;10.05;4.97;;;;;;;;;;4984397;28;20026;-72
2022/09/01 01:03:05;;;;;;;10.73;4.38;;;;;;;;;;4986005;28;20061;-72
2022/09/01 01:05:35;;;;;;;9.15;5.18;;;;;;;;;;4986477;28;20077;-70
2022/09/01 01:08:03;;;;;;;10.00;4.78;;;;;;;;;;4985641;28;20073;-71
2022/09/01 01:10:31;;;;;;;12.57;4.90;;;;;;;;;;4987346;28;21202;-72
2022/09/01 01:13:00;;;;;;;8.00;4.80;;;;;;;;;;4986339;28;20049;-72
2022/09/01 01:15:27;;;;;;;9.02;5.07;;;;;;;;;;4987030;28;20126;-72
2022/09/01 01:17:53;;;;;;;7.28;4.95;;;;;;;;;;4988566;28;20513;-72
2022/09/01 01:23:26;;;;;;;10.18;5.15;;;;;;;;;;4986047;28;20046;-70
2022/09/01 01:25:55;;;;;;;14.07;5.22;;;;;;;;;;4985789;28;20034;-71
2022/09/01 01:28:24;;;;;;;17.33;5.25;;;;;;;;;;4982604;28;20080;-71
2022/09/01 01:30:52;;;;;;;13.65;5.30;;;;;;;;;;4985067;28;20109;-71
2022/09/01 01:33:23;;;;;;;12.18;4.88;;;;;;;;;;4985502;28;20026;-71
2022/09/01 01:35:50;;;;;;;11.05;5.10;;;;;;;;;;4982082;28;20532;-71
2022/09/01 01:38:18;;;;;;;10.70;4.90;;;;;;;;;;4987055;28;20045;-72
2022/09/01 01:40:44;;;;;;;10.27;4.68;;;;;;;;;;4983917;28;20033;-71
2022/09/01 01:43:18;;;;;;;11.55;5.93;;;;;;;;;;4984365;28;20120;-72
2022/09/01 01:45:47;;;;;;;7.90;4.90;;;;;;;;;;4984386;28;20030;-72
2022/09/01 01:48:14;;;;;;;7.95;5.28;;;;;;;;;;4984959;28;20515;-72
2022/09/01 01:50:41;;;;;;;7.38;5.05;;;;;;;;;;4985346;28;20027;-71
2022/09/01 01:53:12;;;;;;;8.45;5.38;;;;;;;;;;4985371;28;20066;-72
2022/09/01 01:55:40;;;;;;;11.40;5.00;;;;;;;;;;4983699;28;20460;-70
2022/09/01 01:58:08;;;;;;;9.23;5.00;;;;;;;;;;4984033;28;20026;-71
2022/09/01 02:00:35;;;;;;;9.30;5.80;;;;;;;;;;4983830;28;20061;-71
2022/09/01 02:03:01;;;;;;;6.35;4.93;;;;;;;;;;4985171;28;20033;-72
2022/09/01 02:05:30;;;;;;;9.43;5.05;;;;;;;;;;4981199;28;20133;-72
2022/09/01 02:07:58;;;;;;;9.40;5.40;;;;;;;;;;4985157;28;21455;-72
2022/09/01 02:10:25;;;;;;;9.57;5.40;;;;;;;;;;4986187;28;20523;-71
2022/09/01 02:12:51;;;;;;;7.47;5.18;;;;;;;;;;4982753;28;20128;-71
2022/09/01 02:15:18;;;;;;;8.20;5.60;;;;;;;;;;4985609;28;20038;-72
2022/09/01 02:17:44;;;;;;;8.10;5.30;;;;;;;;;;4967959;28;20153;-72
2022/09/01 02:20:11;;;;;;;8.50;5.50;;;;;;;;;;4983208;28;20022;-72
2022/09/01 02:22:38;;;;;;;9.75;5.60;;;;;;;;;;4985086;28;20027;-71
2022/09/01 02:25:05;;;;;;;11.30;5.55;;;;;;;;;;4983699;28;20026;-71
2022/09/01 02:27:35;;;;;;;10.70;5.50;;;;;;;;;;4964018;28;20460;-72
2022/09/01 02:30:01;;;;;;;14.07;5.93;;;;;;;;;;4982502;28;20042;-72
2022/09/01 02:32:27;;;;;;;7.20;5.35;;;;;;;;;;4985478;28;20061;-71
2022/09/01 02:35:00;;;;;;;8.70;6.22;;;;;;;;;;4984551;28;20058;-72
2022/09/01 02:37:26;;;;;;;11.45;5.82;;;;;;;;;;4986906;28;20119;-71
2022/09/01 02:39:52;;;;;;;12.30;5.97;;;;;;;;;;4962472;28;20530;-71
2022/09/01 02:42:26;;;;;;;10.18;5.55;;;;;;;;;;4983304;28;20037;-72
2022/09/01 02:44:53;;;;;;;13.68;6.35;;;;;;;;;;4987324;28;20042;-71
2022/09/01 02:47:19;;;;;;;8.63;6.50;;;;;;;;;;4985879;28;20026;-71
2022/09/01 02:49:47;;;;;;;10.30;5.72;;;;;;;;;;4989290;28;20466;-71
2022/09/01 02:52:16;;;;;;;11.55;6.43;;;;;;;;;;4988066;28;20033;-72
2022/09/01 02:54:44;;;;;;;8.73;5.97;;;;;;;;;;4988966;28;20034;-72
2022/09/01 02:57:10;;;;;;;10.25;6.57;;;;;;;;;;4989265;28;20037;-73
2022/09/01 02:59:36;;;;;;;12.73;6.82;;;;;;;;;;4988048;28;20036;-73
2022/09/01 03:02:03;;;;;;;16.52;6.38;;;;;;;;;;4969016;28;20125;-71
2022/09/01 03:04:32;;;;;;;12.30;5.90;;;;;;;;;;4988201;28;20038;-72
2022/09/01 03:06:58;;;;;;;11.63;6.20;;;;;;;;;;4968311;28;20134;-72
2022/09/01 03:09:24;;;;;;;10.20;6.18;;;;;;;;;;4986981;28;20166;-73
2022/09/01 03:11:52;;;;;;;9.75;6.40;;;;;;;;;;4988579;28;20140;-72
2022/09/01 03:14:19;;;;;;;13.15;5.95;;;;;;;;;;4987082;28;20030;-72
2022/09/01 03:16:45;;;;;;;9.90;6.20;;;;;;;;;;4988586;28;20086;-72
2022/09/01 03:19:11;;;;;;;9.70;5.72;;;;;;;;;;4988406;28;20038;-72
2022/09/01 03:21:41;;;;;;;10.50;5.60;;;;;;;;;;4989021;28;20106;-71
2022/09/01 03:24:08;;;;;;;13.90;5.90;;;;;;;;;;4985687;28;20035;-72
2022/09/01 03:26:35;;;;;;;9.43;6.40;;;;;;;;;;4986408;28;20038;-71
2022/09/01 03:29:01;;;;;;;9.18;6.03;;;;;;;;;;4969360;28;20122;-70
2022/09/01 03:31:28;;;;;;;10.30;5.65;;;;;;;;;;4988820;28;20037;-71
2022/09/01 03:33:57;;;;;;;10.70;5.70;;;;;;;;;;4971364;28;20030;-72
2022/09/01 03:36:23;;;;;;;9.43;5.80;;;;;;;;;;4985719;28;20034;-71
2022/09/01 03:38:50;;;;;;;9.52;5.88;;;;;;;;;;4987861;28;20044;-71
2022/09/01 03:41:17;;;;;;;11.10;5.80;;;;;;;;;;4987802;28;20089;-71
2022/09/01 03:43:44;;;;;;;9.60;5.40;;;;;;;;;;4989001;28;20044;-72
2022/09/01 03:46:18;;;;;;;16.40;5.55;;;;;;;;;;4987214;28;20027;-71
2022/09/01 03:48:47;;;;;;;7.55;5.78;;;;;;;;;;4987703;28;20042;-72
2022/09/01 03:51:13;;;;;;;12.52;6.07;;;;;;;;;;4988471;28;20033;-72
2022/09/01 03:53:40;;;;;;;10.15;6.25;;;;;;;;;;4989796;28;20129;-72
2022/09/01 03:56:07;;;;;;;10.45;6.25;;;;;;;;;;4986948;28;20050;-71
2022/09/01 03:58:34;;;;;;;10.43;6.15;;;;;;;;;;4969838;28;20109;-73
2022/09/01 04:01:01;;;;;;;13.32;6.20;;;;;;;;;;4983813;28;20068;-72
2022/09/01 04:03:30;;;;;;;11.60;6.00;;;;;;;;;;4988718;28;20053;-72
2022/09/01 04:05:57;;;;;;;9.52;6.18;;;;;;;;;;4987492;28;20027;-72
2022/09/01 04:08:28;;;;;;;11.65;6.30;;;;;;;;;;4988202;28;20676;-71
2022/09/01 04:10:53;;;;;;;;;;;;;;;;;;4986631;28;20041;-70
2022/09/01 04:13:25;;;;;;;11.32;6.32;;;;;;;;;;4987815;28;19917;-71
2022/09/01 04:15:51;;;;;;;10.15;6.03;;;;;;;;;;4988446;28;20041;-71
2022/09/01 04:18:20;;;;;;;9.57;6.18;;;;;;;;;;4987164;28;20109;-74
2022/09/01 04:20:50;;;;;;;8.63;6.40;;;;;;;;;;4988095;28;20038;-72
2022/09/01 04:23:25;;;;;;;10.07;5.53;;;;;;;;;;4987061;28;20038;-71
2022/09/01 04:25:52;;;;;;;12.80;6.22;;;;;;;;;;4989467;28;20018;-70
2022/09/01 04:28:23;;;;;;;7.90;5.28;;;;;;;;;;4961081;28;20066;-71
2022/09/01 04:30:54;;;;;;;10.57;5.72;;;;;;;;;;4988327;28;20030;-71
2022/09/01 04:33:21;;;;;;;11.20;5.93;;;;;;;;;;4990722;28;20058;-71
2022/09/01 04:35:48;;;;;;;13.50;5.53;;;;;;;;;;4990466;28;20026;-71
2022/09/01 04:38:14;;;;;;;11.13;6.28;;;;;;;;;;4989278;28;20113;-71
2022/09/01 04:40:41;;;;;;;13.98;6.10;;;;;;;;;;4991746;28;20130;-72
2022/09/01 04:43:08;;;;;;;9.80;6.00;;;;;;;;;;4990568;28;20033;-71
2022/09/01 04:45:35;;;;;;;12.38;5.97;;;;;;;;;;4991041;28;20029;-71
2022/09/01 04:48:02;;;;;;;8.82;5.50;;;;;;;;;;4988857;28;20692;-71
2022/09/01 04:50:29;;;;;;;9.27;6.18;;;;;;;;;;4991625;28;20035;-71
2022/09/01 04:52:57;;;;;;;15.40;6.57;;;;;;;;;;4989868;28;20149;-71
2022/09/01 04:55:23;;;;;;;12.23;6.03;;;;;;;;;;4990577;28;20041;-71
2022/09/01 04:57:50;;;;;;;11.65;5.47;;;;;;;;;;4989394;28;20109;-72
2022/09/01 05:00:23;;;;;;;11.45;5.53;;;;;;;;;;4989310;28;20030;-71
2022/09/01 05:02:53;;;;;;;7.93;5.57;;;;;;;;;;4989986;28;20424;-71
2022/09/01 05:05:22;;;;;;;8.33;5.67;;;;;;;;;;4990570;28;20022;-71
2022/09/01 05:07:53;;;;;;;10.30;5.80;;;;;;;;;;4987382;28;20042;-71
2022/09/01 05:10:20;;;;;;;11.05;6.10;;;;;;;;;;4985029;28;20018;-78
2022/09/01 05:12:46;;;;;;;12.32;5.80;;;;;;;;;;4982171;28;20128;-70
2022/09/01 05:15:16;;;;;;;13.82;6.70;;;;;;;;;;4981918;28;20507;-71
2022/09/01 05:17:42;;;;;;;9.40;6.18;;;;;;;;;;4988755;28;20034;-71
2022/09/01 05:20:09;;;;;;;9.07;5.85;;;;;;;;;;4983942;28;20085;-71
2022/09/01 05:22:38;;;;;;;6.25;5.22;;;;;;;;;;4987293;28;20180;-72
2022/09/01 05:25:12;;;;;;;9.93;6.18;;;;;;;;;;4984104;28;20038;-71
2022/09/01 05:27:39;;;;;;;21.90;5.55;;;;;;;;;;4985699;28;20109;-71
2022/09/01 05:30:07;;;;;;;6.80;5.00;;;;;;;;;;4984090;28;20076;-72
2022/09/01 05:32:35;;;;;;;7.28;5.07;;;;;;;;;;4964325;28;20492;-72
2022/09/01 05:35:01;;;;;;;8.05;4.10;;;;;;;;;;4979274;28;20037;-72
2022/09/01 05:37:29;;;;;;;7.72;4.63;;;;;;;;;;4987787;28;20106;-72
2022/09/01 05:39:55;;;;;;;22.60;4.78;;;;;;;;;;4968728;28;20504;-72
2022/09/01 05:42:21;;;;;;;20.40;5.45;;;;;;;;;;4985917;28;20093;-72
2022/09/01 05:44:49;;;;;;;6.95;4.25;;;;;;;;;;4980542;28;20101;-73
2022/09/01 05:47:15;;;;;;;8.90;4.10;;;;;;;;;;4962353;28;20114;-73
2022/09/01 05:49:41;;;;;;;7.93;3.97;;;;;;;;;;4978626;28;20050;-73
2022/09/01 05:52:08;;;;;;;9.07;3.88;;;;;;;;;;4986051;28;20030;-72
2022/09/01 05:54:34;;;;;;;6.60;3.60;;;;;;;;;;4990298;28;20034;-72
2022/09/01 05:57:02;;;;;;;8.68;3.55;;;;;;;;;;4987153;28;20042;-72
2022/09/01 05:59:30;;;;;;;26.02;4.53;;;;;;;;;;4989170;28;20053;-72
2022/09/01 06:01:56;;;;;;;35.28;5.03;;;;;;;;;;4987555;28;20265;-72
2022/09/01 06:04:24;;;;;;;27.98;4.32;;;;;;;;;;4989606;28;20047;-72
2022/09/01 06:06:50;;;;;;;9.57;3.88;;;;;;;;;;4982223;28;20053;-72
2022/09/01 06:09:17;;;;;;;10.68;3.55;;;;;;;;;;4984406;28;20053;-72
2022/09/01 06:11:45;;;;;;;10.98;4.10;;;;;;;;;;4985728;28;20019;-72
2022/09/01 06:14:12;;;;;;;21.30;4.60;;;;;;;;;;4984699;28;20503;-72
2022/09/01 06:16:38;;;;;;;10.65;3.42;;;;;;;;;;4983828;28;20062;-72
2022/09/01 06:19:05;;;;;;;7.95;3.67;;;;;;;;;;4968105;28;20034;-72
2022/09/01 06:21:31;;;;;;;9.23;3.25;;;;;;;;;;4984343;28;20097;-72
2022/09/01 06:23:58;;;;;;;5.75;3.03;;;;;;;;;;4985900;28;20042;-74
2022/09/01 06:26:28;;;;;;;6.10;2.90;;;;;;;;;;4985666;28;20030;-70
2022/09/01 06:28:57;;;;;;;24.50;3.80;;;;;;;;;;4986744;28;20030;-72
2022/09/01 06:31:27;;;;;;;5.07;2.58;;;;;;;;;;4988171;28;20038;-72
2022/09/01 06:33:54;;;;;;;15.03;2.90;;;;;;;;;;4987067;28;20026;-72
2022/09/01 06:36:24;;;;;;;9.38;2.55;;;;;;;;;;4988045;28;20543;-75
2022/09/01 06:38:51;;;;;;;;;;;;;;;;;;4985349;28;20455;-72
2022/09/01 06:41:18;;;;;;;10.30;2.90;;;;;;;;;;4976682;28;19976;-72
2022/09/01 06:43:48;;;;;;;22.20;3.00;;;;;;;;;;4987732;28;20057;-72
2022/09/01 06:46:14;;;;;;;10.07;2.80;;;;;;;;;;4983114;28;20053;-72
2022/09/01 06:48:45;;;;;;;14.27;3.22;;;;;;;;;;4987486;28;20043;-71
2022/09/01 06:51:13;;;;;;;7.22;2.65;;;;;;;;;;4985405;28;20084;-72
2022/09/01 06:53:39;;;;;;;21.45;3.90;;;;;;;;;;4988609;28;20038;-71
2022/09/01 06:56:05;;;;;;;21.33;3.88;;;;;;;;;;4984345;28;20037;-71
2022/09/01 06:58:32;;;;;;;12.35;4.45;;;;;;;;;;4972733;28;20069;-70
2022/09/01 07:00:58;;;;;;;14.77;3.20;;;;;;;;;;4981896;28;20027;-71
2022/09/01 07:03:25;;;;;;;11.05;3.05;;;;;;;;;;4953315;28;20049;-70
2022/09/01 07:05:51;;;;;;;7.68;3.22;;;;;;;;;;4984623;28;20018;-72
2022/09/01 07:08:20;;;;;;;6.32;3.10;;;;;;;;;;4988379;28;20377;-71
2022/09/01 07:10:48;;;;;;;5.40;3.20;;;;;;;;;;4988873;28;20029;-71
2022/09/01 07:13:19;;;;;;;6.18;2.90;;;;;;;;;;4994104;28;20520;-72
2022/09/01 07:15:48;;;;;;;10.40;3.38;;;;;;;;;;4973501;28;20073;-71
2022/09/01 07:18:16;;;;;;;10.43;3.15;;;;;;;;;;4993115;28;20515;-71
2022/09/01 07:20:43;;;;;;;12.07;3.53;;;;;;;;;;4992421;28;20036;-72
2022/09/01 07:23:10;;;;;;;7.40;3.05;;;;;;;;;;4986299;28;20034;-72
2022/09/01 07:25:40;;;;;;;13.02;3.50;;;;;;;;;;4990251;28;21067;-73
2022/09/01 07:28:07;;;;;;;13.57;4.47;;;;;;;;;;4993545;28;20088;-75
2022/09/01 07:30:34;;;;;;;75.63;12.57;;;;;;;;;;4987493;28;20034;-72
2022/09/01 07:33:00;;;;;;;17.27;4.88;;;;;;;;;;4996152;28;20030;-72
2022/09/01 07:35:26;;;;;;;10.15;3.38;;;;;;;;;;4992394;28;20042;-73
2022/09/01 07:37:54;;;;;;;7.97;3.47;;;;;;;;;;4969613;28;20034;-74
2022/09/01 07:40:21;;;;;;;9.75;3.58;;;;;;;;;;4990745;28;20042;-71
2022/09/01 07:42:48;;;;;;;8.38;2.80;;;;;;;;;;4992379;28;20046;-74
2022/09/01 07:45:15;;;;;;;9.65;3.40;;;;;;;;;;4989922;28;20054;-75
2022/09/01 07:47:41;;;;;;;4.72;2.25;;;;;;;;;;4991924;28;20022;-73
2022/09/01 07:50:13;;;;;;;8.75;2.10;;;;;;;;;;4989523;28;20109;-75
2022/09/01 07:52:41;;;;;;;5.28;1.95;;;;;;;;;;4992414;28;20094;-72
2022/09/01 07:55:12;;;;;;;13.75;2.65;;;;;;;;;;4991154;28;20038;-72
2022/09/01 07:57:42;;;;;;;7.45;2.92;;;;;;;;;;4987565;28;20353;-71
2022/09/01 08:00:08;;;;;;;6.68;2.25;;;;;;;;;;4988491;28;20460;-73
2022/09/01 08:02:37;;;;;;;8.98;2.20;;;;;;;;;;4991916;28;20027;-76
2022/09/01 08:05:06;;;;;;;10.40;2.00;;;;;;;;;;4990367;28;20049;-72
2022/09/01 08:07:33;;;;;;;8.32;1.98;;;;;;;;;;4989894;28;20046;-73
2022/09/01 08:09:59;;;;;;;10.43;2.22;;;;;;;;;;4988767;28;20050;-73
2022/09/01 08:12:25;;;;;;;5.07;1.95;;;;;;;;;;4991719;28;20038;-73
2022/09/01 08:14:52;;;;;;;5.90;1.70;;;;;;;;;;4991228;28;20034;-74
2022/09/01 08:17:19;;;;;;;7.40;2.10;;;;;;;;;;4973285;28;20030;-72
2022/09/01 08:19:45;;;;;;;3.65;1.70;;;;;;;;;;4991508;28;20040;-73
2022/09/01 08:22:12;;;;;;;6.45;1.98;;;;;;;;;;4992695;28;20026;-72
2022/09/01 08:24:38;;;;;;;57.83;3.72;;;;;;;;;;4989291;28;20563;-73
2022/09/01 08:27:04;;;;;;;5.38;1.63;;;;;;;;;;4988791;28;20037;-73
2022/09/01 08:29:30;;;;;;;3.83;1.30;;;;;;;;;;4980412;28;20045;-72
2022/09/01 08:31:57;;;;;;;5.80;1.50;;;;;;;;;;4991872;28;20354;-72
2022/09/01 08:34:25;;;;;;;3.78;1.50;;;;;;;;;;4989845;28;20089;-73
2022/09/01 08:36:52;;;;;;;5.72;1.50;;;;;;;;;;4992136;28;20038;-73
2022/09/01 08:39:18;;;;;;;25.52;2.38;;;;;;;;;;4988629;28;20054;-72
2022/09/01 08:41:47;;;;;;;6.80;1.52;;;;;;;;;;4988622;28;20038;-71
2022/09/01 08:44:32;;;;;;;13.57;2.20;;;;;;;;;;4988885;28;20069;-73
2022/09/01 08:47:03;;;;;;;13.80;2.03;;;;;;;;;;4991246;28;20030;-71
2022/09/01 08:49:29;;;;;;;8.20;1.80;;;;;;;;;;4982131;28;20038;-74
2022/09/01 08:51:58;;;;;;;5.47;1.55;;;;;;;;;;4990455;28;20077;-72
2022/09/01 08:54:26;;;;;;;25.35;3.53;;;;;;;;;;4990023;28;20035;-73
2022/09/01 08:57:08;;;;;;;3.42;1.42;;;;;;;;;;4982623;28;20567;-74
2022/09/01 08:59:34;;;;;;;15.10;1.60;;;;;;;;;;4979574;28;20035;-73
2022/09/01 09:02:22;;;;;;;9.60;2.20;;;;;;;;;;4992932;28;20192;-72
2022/09/01 09:05:14;;;;;;;3.38;1.20;;;;;;;;;;4986817;28;20034;-75
2022/09/01 09:07:52;;;;;;;9.00;1.38;;;;;;;;;;4992100;28;20030;-72
2022/09/01 09:10:31;;;;;;;3.30;1.30;;;;;;;;;;4986078;28;20491;-71
2022/09/01 09:13:00;;;;;;;6.68;1.65;;;;;;;;;;4992371;28;20117;-72
2022/09/01 09:15:32;;;;;;;3.38;1.30;;;;;;;;;;4992174;28;20014;-73
2022/09/01 09:18:08;;;;;;;17.85;3.30;;;;;;;;;;4996062;28;20073;-71
2022/09/01 09:20:34;;;;;;;11.90;2.13;;;;;;;;;;4994634;28;20053;-75
2022/09/01 09:23:06;;;;;;;3.80;1.08;;;;;;;;;;4995950;28;20539;-75
2022/09/01 09:25:32;;;;;;;8.02;1.60;;;;;;;;;;4988784;28;20045;-74
2022/09/01 09:27:58;;;;;;;7.85;1.80;;;;;;;;;;4982487;28;20031;-76
2022/09/01 09:30:26;;;;;;;3.90;1.05;;;;;;;;;;4992858;28;20159;-74
2022/09/01 09:33:02;;;;;;;7.20;1.90;;;;;;;;;;4995009;28;20034;-74
2022/09/01 09:35:36;;;;;;;6.40;1.20;;;;;;;;;;4996543;28;20026;-75
2022/09/01 09:38:31;;;;;;;3.50;1.30;;;;;;;;;;4992070;28;20081;-75
2022/09/01 09:41:12;;;;;;;12.98;2.20;;;;;;;;;;4990491;28;20050;-75
2022/09/01 09:43:43;;;;;;;8.18;2.00;;;;;;;;;;4992560;28;20034;-74
2022/09/01 09:46:22;;;;;;;7.63;1.58;;;;;;;;;;4991201;28;20036;-74
2022/09/01 09:48:48;;;;;;;5.18;1.30;;;;;;;;;;4992283;28;20053;-73
2022/09/01 09:51:25;;;;;;;4.85;1.08;;;;;;;;;;4992102;28;20076;-75
2022/09/01 09:53:51;;;;;;;9.30;1.85;;;;;;;;;;4985456;28;20053;-73
2022/09/01 09:56:19;;;;;;;5.32;1.20;;;;;;;;;;4972871;28;20468;-70
2022/09/01 09:58:47;;;;;;;13.10;1.23;;;;;;;;;;4990789;28;20476;-72
2022/09/01 10:01:27;;;;;;;8.23;1.55;;;;;;;;;;4987787;28;20038;-74
2022/09/01 10:03:55;;;;;;;2.60;1.00;;;;;;;;;;4989379;28;20036;-74
2022/09/01 10:06:30;;;;;;;5.90;1.17;;;;;;;;;;4973786;28;20031;-73
2022/09/01 10:08:57;;;;;;;2.88;1.15;;;;;;;;;;4989243;28;20034;-74
2022/09/01 10:11:26;;;;;;;6.57;1.33;;;;;;;;;;4990213;28;20026;-77
2022/09/01 10:13:53;;;;;;;5.47;1.13;;;;;;;;;;4991282;28;20037;-76
2022/09/01 10:16:23;;;;;;;3.35;0.98;;;;;;;;;;4991439;28;20040;-75
2022/09/01 10:18:51;;;;;;;4.78;1.20;;;;;;;;;;4989717;28;20034;-76
2022/09/01 10:21:22;;;;;;;6.03;1.02;;;;;;;;;;4975863;28;20042;-76
2022/09/01 10:23:49;;;;;;;2.30;0.90;;;;;;;;;;4973200;28;20399;-75
2022/09/01 10:26:17;;;;;;;2.15;1.00;;;;;;;;;;4972872;28;20026;-74
2022/09/01 10:28:55;;;;;;;3.53;0.90;;;;;;;;;;4989770;28;20102;-74
2022/09/01 10:31:21;;;;;;;4.70;1.20;;;;;;;;;;4971462;28;20119;-73
2022/09/01 10:33:48;;;;;;;1.77;0.95;;;;;;;;;;4983994;28;20096;-74
2022/09/01 10:36:15;;;;;;;11.98;1.20;;;;;;;;;;4968806;28;20134;-72
2022/09/01 10:38:41;;;;;;;7.60;2.15;;;;;;;;;;4990039;28;20515;-73
2022/09/01 10:41:08;;;;;;;6.38;1.00;;;;;;;;;;4989328;28;20567;-72
2022/09/01 10:43:34;;;;;;;5.13;1.30;;;;;;;;;;4990129;28;20069;-75
2022/09/01 10:46:07;;;;;;;32.88;4.85;;;;;;;;;;4990542;28;20034;-75
2022/09/01 10:48:34;;;;;;;28.77;4.35;;;;;;;;;;4987565;28;20062;-74
2022/09/01 10:51:13;;;;;;;9.35;1.80;;;;;;;;;;4989130;28;20316;-73
2022/09/01 10:53:42;;;;;;;7.40;1.15;;;;;;;;;;4989408;28;20031;-74
2022/09/01 10:56:19;;;;;;;5.60;1.40;;;;;;;;;;4990961;28;20065;-73
2022/09/01 10:59:00;;;;;;;7.60;1.25;;;;;;;;;;4989472;28;20551;-72
2022/09/01 11:01:44;;;;;;;7.90;1.40;;;;;;;;;;4980431;28;20030;-72
2022/09/01 11:04:12;;;;;;;10.85;1.25;;;;;;;;;;4988634;28;20243;-71
2022/09/01 11:07:00;;;;;;;6.50;1.30;;;;;;;;;;4988099;28;20041;-73
2022/09/01 11:09:31;;;;;;;60.15;6.95;;;;;;;;;;4993662;28;20052;-73
2022/09/01 11:11:57;;;;;;;13.60;1.50;;;;;;;;;;4987725;28;20085;-73
2022/09/01 11:14:25;;;;;;;15.57;1.50;;;;;;;;;;4989322;28;20464;-73
2022/09/01 11:17:09;;;;;;;23.52;3.15;;;;;;;;;;4985096;28;20106;-73
2022/09/01 11:19:54;;;;;;;1.85;1.00;;;;;;;;;;4989038;28;20510;-73
2022/09/01 11:22:24;;;;;;;5.85;1.10;;;;;;;;;;4979865;28;20034;-72
2022/09/01 11:24:52;;;;;;;6.40;1.30;;;;;;;;;;4993480;28;20061;-73
2022/09/01 11:27:37;;;;;;;20.60;3.00;;;;;;;;;;4994154;28;20396;-74
2022/09/01 11:30:08;;;;;;;12.43;2.30;;;;;;;;;;4983081;28;20034;-72
2022/09/01 11:32:36;;;;;;;56.78;6.20;;;;;;;;;;4994741;28;20049;-72
2022/09/01 11:35:04;;;;;;;11.68;2.65;;;;;;;;;;4990932;28;20061;-71
2022/09/01 11:37:32;;;;;;;7.55;1.67;;;;;;;;;;4992574;28;20038;-70
2022/09/01 11:40:00;;;;;;;4.32;1.08;;;;;;;;;;4976203;28;20443;-72
2022/09/01 11:42:28;;;;;;;2.92;0.98;;;;;;;;;;4993445;28;20393;-72
2022/09/01 11:45:02;;;;;;;3.70;1.00;;;;;;;;;;4988111;28;20030;-72
2022/09/01 11:47:31;;;;;;;19.83;3.92;;;;;;;;;;4993092;28;20054;-73
2022/09/01 11:50:16;;;;;;;2.70;1.10;;;;;;;;;;4994917;28;20102;-73
2022/09/01 11:52:51;;;;;;;17.48;2.22;;;;;;;;;;4995583;28;20057;-72
2022/09/01 11:55:27;;;;;;;9.25;1.55;;;;;;;;;;4979069;28;20373;-73
2022/09/01 11:57:53;;;;;;;13.68;1.48;;;;;;;;;;4987733;28;20554;-72
2022/09/01 12:00:25;;;;;;;14.95;1.88;;;;;;;;;;4991493;28;20035;-73
2022/09/01 12:02:53;;;;;;;2.83;1.10;;;;;;;;;;4991669;28;20030;-71
2022/09/01 12:05:33;;;;;;;14.80;2.70;;;;;;;;;;4994317;28;20109;-72
2022/09/01 12:08:01;;;;;;;9.55;1.90;;;;;;;;;;4991132;28;20053;-73
2022/09/01 12:10:36;;;;;;;13.90;2.40;;;;;;;;;;4991963;28;20484;-72
2022/09/01 12:13:10;;;;;;;11.43;1.75;;;;;;;;;;4993803;28;20026;-72
2022/09/01 12:15:41;;;;;;;5.28;1.45;;;;;;;;;;4982283;28;20030;-72
2022/09/01 12:18:06;;;;;;;;;;;;;;;;;;4985020;28;20034;-71
2022/09/01 12:20:37;;;;;;;10.60;3.33;;;;;;;;;;4987612;28;19913;-73
2022/09/01 12:23:03;;;;;;;;;;;;;;;;;;4991744;28;20033;-73
2022/09/01 12:25:30;;;;;;;18.35;2.70;;;;;;;;;;4988807;28;20181;-72
2022/09/01 12:27:57;;;;;;;4.88;0.98;;;;;;;;;;4991249;28;20049;-72
2022/09/01 12:30:23;;;;;;;2.67;0.80;;;;;;;;;;4993250;28;20037;-72
2022/09/01 12:32:49;;;;;;;6.85;1.35;;;;;;;;;;4991022;28;20036;-74
2022/09/01 12:35:20;;;;;;;3.72;1.00;;;;;;;;;;4973067;28;20026;-71
2022/09/01 12:37:46;;;;;;;6.22;1.20;;;;;;;;;;4985022;28;20023;-73
2022/09/01 12:40:39;;;;;;;4.85;1.15;;;;;;;;;;4990593;28;20038;-73
2022/09/01 12:43:05;;;;;;;10.00;0.93;;;;;;;;;;4985471;28;20042;-75
2022/09/01 12:45:39;;;;;;;32.08;3.72;;;;;;;;;;4985269;28;20022;-72
2022/09/01 12:48:05;;;;;;;27.60;3.88;;;;;;;;;;4995453;28;20008;-75
2022/09/01 12:50:35;;;;;;;29.40;3.90;;;;;;;;;;4989659;28;20040;-73
2022/09/01 12:53:02;;;;;;;38.78;6.65;;;;;;;;;;4989571;28;20026;-74
2022/09/01 12:55:30;;;;;;;38.72;6.47;;;;;;;;;;4988564;28;20037;-75
2022/09/01 12:58:00;;;;;;;7.93;2.50;;;;;;;;;;4991877;28;20224;-72
2022/09/01 13:00:28;;;;;;;10.13;2.22;;;;;;;;;;4983483;28;20052;-72
2022/09/01 13:02:54;;;;;;;27.70;4.18;;;;;;;;;;4989752;28;20105;-72
2022/09/01 13:05:28;;;;;;;22.17;3.50;;;;;;;;;;4989990;28;20058;-73
2022/09/01 13:07:59;;;;;;;4.70;0.93;;;;;;;;;;4991911;28;20026;-73
2022/09/01 13:10:27;;;;;;;2.05;0.80;;;;;;;;;;4990503;28;20508;-73
2022/09/01 13:12:53;;;;;;;2.95;1.15;;;;;;;;;;4990792;28;20072;-74
2022/09/01 13:15:19;;;;;;;5.07;1.05;;;;;;;;;;4988186;28;20061;-75
2022/09/01 13:17:46;;;;;;;18.52;1.65;;;;;;;;;;4988296;28;20077;-72
2022/09/01 13:20:12;;;;;;;19.98;3.05;;;;;;;;;;4969905;28;20035;-73
2022/09/01 13:22:40;;;;;;;36.55;5.32;;;;;;;;;;4972198;28;20030;-75
2022/09/01 13:25:09;;;;;;;36.42;5.75;;;;;;;;;;4988588;28;20125;-74
2022/09/01 13:27:36;;;;;;;36.37;3.97;;;;;;;;;;4991150;28;20033;-75
2022/09/01 13:30:03;;;;;;;5.88;1.00;;;;;;;;;;4985792;28;20039;-73
2022/09/01 13:32:29;;;;;;;45.28;6.40;;;;;;;;;;4982173;28;20049;-73
2022/09/01 13:34:55;;;;;;;12.35;2.75;;;;;;;;;;4989587;28;20437;-74
2022/09/01 13:37:22;;;;;;;4.30;1.40;;;;;;;;;;4987371;28;20038;-75
2022/09/01 13:39:48;;;;;;;6.18;1.35;;;;;;;;;;4969807;28;20511;-75
2022/09/01 13:42:14;;;;;;;37.80;6.47;;;;;;;;;;4989969;28;20037;-75
2022/09/01 13:44:40;;;;;;;20.85;3.85;;;;;;;;;;4971851;28;20883;-75
2022/09/01 13:47:06;;;;;;;47.28;6.38;;;;;;;;;;4973353;28;20030;-75
2022/09/01 13:49:32;;;;;;;48.05;6.60;;;;;;;;;;4989526;28;20108;-75
2022/09/01 13:51:58;;;;;;;36.95;7.20;;;;;;;;;;4986422;28;20038;-74
2022/09/01 13:54:24;;;;;;;34.88;5.40;;;;;;;;;;4986920;28;20034;-74
2022/09/01 13:56:51;;;;;;;33.72;5.03;;;;;;;;;;4991582;28;20121;-76
2022/09/01 13:59:17;;;;;;;92.75;15.57;;;;;;;;;;4966192;28;20030;-75
2022/09/01 14:01:45;;;;;;;7.40;1.60;;;;;;;;;;4991309;28;20038;-73
2022/09/01 14:04:11;;;;;;;15.38;1.75;;;;;;;;;;4981523;28;20463;-72
2022/09/01 14:06:43;;;;;;;12.50;2.22;;;;;;;;;;4990062;28;20030;-72
2022/09/01 14:09:13;;;;;;;38.10;5.88;;;;;;;;;;4990443;28;20105;-73
2022/09/01 14:11:39;;;;;;;31.48;3.58;;;;;;;;;;4972392;28;20022;-73
2022/09/01 14:14:05;;;;;;;5.35;1.23;;;;;;;;;;4986347;28;20100;-72
2022/09/01 14:16:32;;;;;;;13.40;1.85;;;;;;;;;;4970637;28;20134;-72
2022/09/01 14:18:58;;;;;;;3.15;1.13;;;;;;;;;;4965250;28;20295;-72
2022/09/01 14:21:25;;;;;;;3.80;1.02;;;;;;;;;;4989405;28;20026;-71
2022/09/01 14:23:51;;;;;;;9.98;1.50;;;;;;;;;;4980465;28;20558;-72
2022/09/01 14:26:17;;;;;;;3.58;1.02;;;;;;;;;;4990124;28;20066;-72
2022/09/01 14:28:47;;;;;;;5.78;1.25;;;;;;;;;;4986529;28;20027;-73
2022/09/01 14:31:14;;;;;;;7.50;1.10;;;;;;;;;;4989923;28;20030;-73
2022/09/01 14:33:41;;;;;;;10.15;1.45;;;;;;;;;;4972721;28;20031;-72
2022/09/01 14:36:08;;;;;;;20.88;1.42;;;;;;;;;;4986881;28;20046;-71
2022/09/01 14:38:34;;;;;;;13.77;1.15;;;;;;;;;;4991238;28;20022;-72
2022/09/01 14:41:01;;;;;;;8.68;1.20;;;;;;;;;;4976074;28;20554;-73
2022/09/01 14:43:28;;;;;;;5.18;1.10;;;;;;;;;;4991725;28;20030;-70
2022/09/01 14:46:05;;;;;;;4.22;1.10;;;;;;;;;;4990907;28;20029;-71
2022/09/01 14:48:32;;;;;;;8.57;1.08;;;;;;;;;;4993525;28;20046;-72
2022/09/01 14:50:59;;;;;;;3.67;1.10;;;;;;;;;;4992057;28;20027;-72